sensor_id;sensor_type;location;lat;lon;timestamp;pressure;altitude;pressure_sealevel;temperature;humidity
818;BME280;391;51.052;6.954;2023-01-31T00:00:41;101821.53;;;6.04;81.41
818;BME280;391;51.052;6.954;2023-01-31T00:02:45;101819.66;;;6.02;82.11
818;BME280;391;51.052;6.954;2023-01-31T00:04:49;101828.19;;;6.14;81.56
818;BME280;391;51.052;6.954;2023-01-31T00:06:53;101830.19;;;6.05;81.40
818;BME280;391;51.052;6.954;2023-01-31T00:08:57;101723.09;;;5.24;82.55
818;BME280;391;51.052;6.954;2023-01-31T00:11:01;101830.00;;;6.02;82.21
818;BME280;391;51.052;6.954;2023-01-31T00:13:05;101829.03;;;6.00;81.96
818;BME280;391;51.052;6.954;2023-01-31T00:15:08;101826.13;;;5.95;82.37
818;BME280;391;51.052;6.954;2023-01-31T00:17:14;101835.25;;;6.03;81.72
818;BME280;391;51.052;6.954;2023-01-31T00:19:19;101830.69;;;6.12;81.72
818;BME280;391;51.052;6.954;2023-01-31T00:21:24;101832.88;;;6.06;81.93
818;BME280;391;51.052;6.954;2023-01-31T00:23:28;101835.00;;;5.99;81.21
818;BME280;391;51.052;6.954;2023-01-31T00:25:31;101829.41;;;5.93;82.09
818;BME280;391;51.052;6.954;2023-01-31T00:27:35;101834.28;;;5.88;82.49
818;BME280;391;51.052;6.954;2023-01-31T00:29:39;101841.47;;;5.92;82.45
818;BME280;391;51.052;6.954;2023-01-31T00:31:42;101833.28;;;5.99;82.18
818;BME280;391;51.052;6.954;2023-01-31T00:33:47;101837.06;;;6.04;82.09
818;BME280;391;51.052;6.954;2023-01-31T00:35:52;101805.50;;;5.83;81.68
818;BME280;391;51.052;6.954;2023-01-31T00:37:57;101823.66;;;5.97;81.72
818;BME280;391;51.052;6.954;2023-01-31T00:40:01;101824.03;;;6.03;81.92
818;BME280;391;51.052;6.954;2023-01-31T00:42:05;101830.59;;;6.11;81.44
818;BME280;391;51.052;6.954;2023-01-31T00:44:08;101832.00;;;6.06;81.21
818;BME280;391;51.052;6.954;2023-01-31T00:46:13;101833.19;;;5.98;82.08
818;BME280;391;51.052;6.954;2023-01-31T00:48:16;101824.91;;;6.03;81.81
818;BME280;391;51.052;6.954;2023-01-31T00:50:20;101824.63;;;6.12;81.08
818;BME280;391;51.052;6.954;2023-01-31T00:52:25;101823.94;;;5.88;81.51
818;BME280;391;51.052;6.954;2023-01-31T00:54:28;101823.94;;;5.88;82.32
818;BME280;391;51.052;6.954;2023-01-31T00:56:32;101819.94;;;5.80;82.75
818;BME280;391;51.052;6.954;2023-01-31T00:58:37;101819.97;;;5.93;82.04
818;BME280;391;51.052;6.954;2023-01-31T01:00:41;101825.41;;;5.98;81.69
818;BME280;391;51.052;6.954;2023-01-31T01:02:44;101822.94;;;5.99;81.72
818;BME280;391;51.052;6.954;2023-01-31T01:04:48;101818.88;;;6.03;81.43
818;BME280;391;51.052;6.954;2023-01-31T01:06:51;101829.56;;;5.82;81.69
818;BME280;391;51.052;6.954;2023-01-31T01:08:56;101824.22;;;5.79;82.33
818;BME280;391;51.052;6.954;2023-01-31T01:11:05;101828.47;;;5.79;82.55
818;BME280;391;51.052;6.954;2023-01-31T01:13:09;101829.81;;;5.85;82.45
818;BME280;391;51.052;6.954;2023-01-31T01:15:13;101834.34;;;5.76;82.30
818;BME280;391;51.052;6.954;2023-01-31T01:17:16;101833.97;;;5.70;82.19
818;BME280;391;51.052;6.954;2023-01-31T01:19:20;101824.09;;;5.78;82.13
818;BME280;391;51.052;6.954;2023-01-31T01:21:25;101837.34;;;5.82;82.38
818;BME280;391;51.052;6.954;2023-01-31T01:23:29;101843.50;;;5.84;82.07
818;BME280;391;51.052;6.954;2023-01-31T01:25:42;101844.38;;;5.72;82.46
818;BME280;391;51.052;6.954;2023-01-31T01:27:45;101822.78;;;5.71;81.78
818;BME280;391;51.052;6.954;2023-01-31T01:29:49;101699.72;;;4.96;82.43
818;BME280;391;51.052;6.954;2023-01-31T01:31:52;101827.69;;;5.67;82.45
818;BME280;391;51.052;6.954;2023-01-31T01:33:57;101833.03;;;5.57;82.62
818;BME280;391;51.052;6.954;2023-01-31T01:36:02;101839.59;;;5.65;82.74
818;BME280;391;51.052;6.954;2023-01-31T01:38:06;101841.13;;;5.61;82.34
818;BME280;391;51.052;6.954;2023-01-31T01:40:10;101841.41;;;5.66;81.65
818;BME280;391;51.052;6.954;2023-01-31T01:42:16;101847.59;;;5.68;82.09
818;BME280;391;51.052;6.954;2023-01-31T01:44:48;101831.38;;;5.70;82.26
818;BME280;391;51.052;6.954;2023-01-31T01:46:53;101826.97;;;5.69;81.44
818;BME280;391;51.052;6.954;2023-01-31T01:49:02;101750.38;;;5.32;81.49
818;BME280;391;51.052;6.954;2023-01-31T01:51:06;101817.78;;;5.86;81.39
818;BME280;391;51.052;6.954;2023-01-31T01:53:13;101822.50;;;5.80;81.32
818;BME280;391;51.052;6.954;2023-01-31T01:55:22;101822.19;;;5.75;81.31
818;BME280;391;51.052;6.954;2023-01-31T01:57:32;101813.25;;;5.83;80.85
818;BME280;391;51.052;6.954;2023-01-31T01:59:42;101751.06;;;5.43;80.82
818;BME280;391;51.052;6.954;2023-01-31T02:01:48;101823.84;;;5.87;80.90
818;BME280;391;51.052;6.954;2023-01-31T02:03:53;101821.50;;;5.78;80.94
818;BME280;391;51.052;6.954;2023-01-31T02:05:59;101825.69;;;5.76;81.17
818;BME280;391;51.052;6.954;2023-01-31T02:08:04;101714.56;;;5.25;81.02
818;BME280;391;51.052;6.954;2023-01-31T02:10:11;101823.50;;;5.69;81.38
818;BME280;391;51.052;6.954;2023-01-31T02:12:16;101825.09;;;5.80;81.54
818;BME280;391;51.052;6.954;2023-01-31T02:14:21;101815.38;;;5.89;80.62
818;BME280;391;51.052;6.954;2023-01-31T02:16:26;101824.31;;;5.94;80.76
818;BME280;391;51.052;6.954;2023-01-31T02:18:29;101827.81;;;5.95;80.17
818;BME280;391;51.052;6.954;2023-01-31T02:20:48;101766.88;;;5.60;80.37
818;BME280;391;51.052;6.954;2023-01-31T02:23:22;101825.09;;;6.06;80.03
818;BME280;391;51.052;6.954;2023-01-31T02:25:49;101815.16;;;6.12;79.91
818;BME280;391;51.052;6.954;2023-01-31T02:28:11;101825.00;;;6.18;79.99
818;BME280;391;51.052;6.954;2023-01-31T02:30:47;101807.03;;;5.93;79.39
818;BME280;391;51.052;6.954;2023-01-31T02:33:08;101824.31;;;6.07;79.72
818;BME280;391;51.052;6.954;2023-01-31T02:35:22;101803.41;;;5.91;79.36
818;BME280;391;51.052;6.954;2023-01-31T02:37:32;101830.41;;;6.08;79.30
818;BME280;391;51.052;6.954;2023-01-31T02:39:42;101829.03;;;6.00;79.56
818;BME280;391;51.052;6.954;2023-01-31T02:41:55;101826.78;;;5.79;80.02
818;BME280;391;51.052;6.954;2023-01-31T02:44:06;101817.78;;;5.86;79.92
818;BME280;391;51.052;6.954;2023-01-31T02:46:42;101836.59;;;5.97;79.59
818;BME280;391;51.052;6.954;2023-01-31T02:48:54;101724.00;;;5.38;79.96
818;BME280;391;51.052;6.954;2023-01-31T02:51:03;101839.84;;;6.07;79.54
818;BME280;391;51.052;6.954;2023-01-31T02:53:14;101840.75;;;5.95;79.59
818;BME280;391;51.052;6.954;2023-01-31T02:55:23;101834.28;;;6.01;79.73
818;BME280;391;51.052;6.954;2023-01-31T02:57:48;101846.13;;;5.98;79.47
818;BME280;391;51.052;6.954;2023-01-31T02:59:52;101838.88;;;5.92;79.54
818;BME280;391;51.052;6.954;2023-01-31T03:02:00;101826.47;;;5.75;80.10
818;BME280;391;51.052;6.954;2023-01-31T03:04:08;101831.47;;;5.85;79.99
818;BME280;391;51.052;6.954;2023-01-31T03:06:47;101826.00;;;5.80;80.61
818;BME280;391;51.052;6.954;2023-01-31T03:09:01;101816.94;;;5.74;80.45
818;BME280;391;51.052;6.954;2023-01-31T03:11:07;101816.72;;;5.84;80.57
818;BME280;391;51.052;6.954;2023-01-31T03:13:29;101814.88;;;5.95;80.00
818;BME280;391;51.052;6.954;2023-01-31T03:15:44;101792.75;;;5.73;79.88
818;BME280;391;51.052;6.954;2023-01-31T03:18:09;101713.66;;;5.24;79.85
818;BME280;391;51.052;6.954;2023-01-31T03:20:18;101814.88;;;5.95;79.48
818;BME280;391;51.052;6.954;2023-01-31T03:22:27;101796.03;;;5.84;79.90
818;BME280;391;51.052;6.954;2023-01-31T03:24:32;101799.72;;;6.01;79.44
818;BME280;391;51.052;6.954;2023-01-31T03:26:37;101789.69;;;5.92;78.87
818;BME280;391;51.052;6.954;2023-01-31T03:28:42;101798.59;;;5.84;79.82
818;BME280;391;51.052;6.954;2023-01-31T03:30:48;101787.00;;;5.91;79.38
818;BME280;391;51.052;6.954;2023-01-31T03:32:58;101792.25;;;5.79;80.09
818;BME280;391;51.052;6.954;2023-01-31T03:35:04;101778.91;;;5.60;79.52
818;BME280;391;51.052;6.954;2023-01-31T03:37:15;101791.34;;;5.52;80.53
818;BME280;391;51.052;6.954;2023-01-31T03:39:28;101798.72;;;5.59;80.68
818;BME280;391;51.052;6.954;2023-01-31T03:41:44;101723.47;;;4.91;80.51
818;BME280;391;51.052;6.954;2023-01-31T03:43:54;101800.59;;;5.36;81.13
818;BME280;391;51.052;6.954;2023-01-31T03:46:05;101788.84;;;5.41;81.75
818;BME280;391;51.052;6.954;2023-01-31T03:48:11;101785.47;;;5.42;81.08
818;BME280;391;51.052;6.954;2023-01-31T03:50:23;101786.78;;;5.35;81.64
818;BME280;391;51.052;6.954;2023-01-31T03:52:33;101795.81;;;5.42;80.99
818;BME280;391;51.052;6.954;2023-01-31T03:54:42;101685.22;;;4.60;81.62
818;BME280;391;51.052;6.954;2023-01-31T03:56:52;101792.13;;;5.38;81.76
818;BME280;391;51.052;6.954;2023-01-31T03:58:59;101805.34;;;5.43;80.98
818;BME280;391;51.052;6.954;2023-01-31T04:01:06;101799.91;;;5.38;81.50
818;BME280;391;51.052;6.954;2023-01-31T04:03:14;101799.00;;;5.38;81.29
818;BME280;391;51.052;6.954;2023-01-31T04:05:21;101792.44;;;5.29;81.37
818;BME280;391;51.052;6.954;2023-01-31T04:07:33;101787.97;;;5.40;81.78
818;BME280;391;51.052;6.954;2023-01-31T04:09:37;101787.16;;;5.28;81.45
818;BME280;391;51.052;6.954;2023-01-31T04:11:42;101782.25;;;5.06;82.65
818;BME280;391;51.052;6.954;2023-01-31T04:13:48;101779.47;;;4.78;83.80
818;BME280;391;51.052;6.954;2023-01-31T04:15:52;101775.84;;;5.01;82.73
818;BME280;391;51.052;6.954;2023-01-31T04:17:56;101788.03;;;5.15;82.65
818;BME280;391;51.052;6.954;2023-01-31T04:19:59;101776.56;;;5.12;82.43
818;BME280;391;51.052;6.954;2023-01-31T04:22:03;101770.78;;;5.03;82.85
818;BME280;391;51.052;6.954;2023-01-31T04:24:08;101774.31;;;4.78;83.72
818;BME280;391;51.052;6.954;2023-01-31T04:26:11;101765.66;;;4.78;84.74
818;BME280;391;51.052;6.954;2023-01-31T04:28:15;101762.88;;;4.75;85.32
818;BME280;391;51.052;6.954;2023-01-31T04:30:18;101768.19;;;4.90;83.73
818;BME280;391;51.052;6.954;2023-01-31T04:32:22;101755.38;;;4.91;83.83
818;BME280;391;51.052;6.954;2023-01-31T04:34:25;101760.22;;;4.87;84.30
818;BME280;391;51.052;6.954;2023-01-31T04:36:29;101753.66;;;4.92;84.85
818;BME280;391;51.052;6.954;2023-01-31T04:38:33;101759.44;;;4.88;84.01
818;BME280;391;51.052;6.954;2023-01-31T04:40:37;101758.25;;;4.96;84.91
818;BME280;391;51.052;6.954;2023-01-31T04:42:41;101739.13;;;4.80;84.58
818;BME280;391;51.052;6.954;2023-01-31T04:44:44;101757.25;;;4.94;84.50
818;BME280;391;51.052;6.954;2023-01-31T04:46:48;101758.13;;;4.81;84.56
818;BME280;391;51.052;6.954;2023-01-31T04:48:51;101741.56;;;4.66;84.95
818;BME280;391;51.052;6.954;2023-01-31T04:50:55;101757.84;;;4.90;84.95
818;BME280;391;51.052;6.954;2023-01-31T04:52:58;101753.41;;;5.00;84.60
818;BME280;391;51.052;6.954;2023-01-31T04:55:02;101748.06;;;5.10;85.02
818;BME280;391;51.052;6.954;2023-01-31T04:57:06;101759.59;;;5.15;84.60
818;BME280;391;51.052;6.954;2023-01-31T04:59:10;101752.72;;;5.03;84.15
818;BME280;391;51.052;6.954;2023-01-31T05:01:13;101754.78;;;5.08;83.91
818;BME280;391;51.052;6.954;2023-01-31T05:03:17;101702.44;;;4.73;84.01
818;BME280;391;51.052;6.954;2023-01-31T05:05:20;101746.16;;;5.08;84.36
818;BME280;391;51.052;6.954;2023-01-31T05:07:24;101756.50;;;5.21;83.64
818;BME280;391;51.052;6.954;2023-01-31T05:09:27;101753.53;;;5.28;83.43
818;BME280;391;51.052;6.954;2023-01-31T05:11:31;101746.09;;;5.32;83.92
818;BME280;391;51.052;6.954;2023-01-31T05:13:36;101755.63;;;5.33;83.26
818;BME280;391;51.052;6.954;2023-01-31T05:15:40;101749.28;;;5.28;83.16
818;BME280;391;51.052;6.954;2023-01-31T05:17:43;101749.66;;;5.34;83.19
818;BME280;391;51.052;6.954;2023-01-31T05:19:47;101751.66;;;5.39;83.23
818;BME280;391;51.052;6.954;2023-01-31T05:21:51;101739.72;;;5.41;82.86
818;BME280;391;51.052;6.954;2023-01-31T05:24:00;101749.16;;;5.40;82.74
818;BME280;391;51.052;6.954;2023-01-31T05:26:05;101746.06;;;5.46;82.73
818;BME280;391;51.052;6.954;2023-01-31T05:28:08;101739.91;;;5.44;82.47
818;BME280;391;51.052;6.954;2023-01-31T05:30:13;101736.34;;;5.42;82.55
818;BME280;391;51.052;6.954;2023-01-31T05:32:17;101739.31;;;5.34;82.84
818;BME280;391;51.052;6.954;2023-01-31T05:34:21;101737.72;;;5.37;82.72
818;BME280;391;51.052;6.954;2023-01-31T05:36:26;101732.56;;;5.37;82.34
818;BME280;391;51.052;6.954;2023-01-31T05:38:30;101738.44;;;5.34;82.51
818;BME280;391;51.052;6.954;2023-01-31T05:40:33;101723.28;;;5.14;82.74
818;BME280;391;51.052;6.954;2023-01-31T05:42:37;101744.66;;;5.11;82.95
818;BME280;391;51.052;6.954;2023-01-31T05:44:40;101736.63;;;4.82;84.08
818;BME280;391;51.052;6.954;2023-01-31T05:46:45;101740.75;;;4.92;85.12
818;BME280;391;51.052;6.954;2023-01-31T05:48:49;101737.56;;;4.96;84.36
818;BME280;391;51.052;6.954;2023-01-31T05:50:52;101736.31;;;5.02;84.15
818;BME280;391;51.052;6.954;2023-01-31T05:52:57;101735.31;;;5.00;84.21
818;BME280;391;51.052;6.954;2023-01-31T05:55:02;101729.75;;;4.94;85.49
818;BME280;391;51.052;6.954;2023-01-31T05:57:05;101659.94;;;4.68;85.22
818;BME280;391;51.052;6.954;2023-01-31T05:59:09;101735.81;;;5.08;84.80
818;BME280;391;51.052;6.954;2023-01-31T06:01:13;101719.41;;;4.94;85.65
818;BME280;391;51.052;6.954;2023-01-31T06:03:18;101725.44;;;4.95;85.78
818;BME280;391;51.052;6.954;2023-01-31T06:05:21;101720.78;;;4.89;86.06
818;BME280;391;51.052;6.954;2023-01-31T06:07:25;101714.72;;;5.02;86.46
818;BME280;391;51.052;6.954;2023-01-31T06:09:29;101720.78;;;4.89;86.52
818;BME280;391;51.052;6.954;2023-01-31T06:11:33;101717.59;;;4.93;87.06
818;BME280;391;51.052;6.954;2023-01-31T06:13:36;101716.41;;;4.88;87.53
818;BME280;391;51.052;6.954;2023-01-31T06:15:42;101710.47;;;5.02;87.02
818;BME280;391;51.052;6.954;2023-01-31T06:17:45;101673.88;;;4.96;86.77
818;BME280;391;51.052;6.954;2023-01-31T06:19:50;101709.94;;;4.95;86.92
818;BME280;391;51.052;6.954;2023-01-31T06:21:54;101712.22;;;4.90;87.20
818;BME280;391;51.052;6.954;2023-01-31T06:23:57;101533.53;;;3.81;87.95
818;BME280;391;51.052;6.954;2023-01-31T06:26:01;101703.16;;;4.70;88.03
818;BME280;391;51.052;6.954;2023-01-31T06:28:05;101697.84;;;4.94;87.68
818;BME280;391;51.052;6.954;2023-01-31T06:30:10;101696.16;;;4.94;87.85
818;BME280;391;51.052;6.954;2023-01-31T06:32:13;101698.50;;;4.78;87.63
818;BME280;391;51.052;6.954;2023-01-31T06:34:17;101692.59;;;4.67;88.51
818;BME280;391;51.052;6.954;2023-01-31T06:36:21;101703.47;;;4.75;89.40
818;BME280;391;51.052;6.954;2023-01-31T06:38:25;101703.78;;;4.93;88.30
818;BME280;391;51.052;6.954;2023-01-31T06:40:29;101704.84;;;4.83;88.31
818;BME280;391;51.052;6.954;2023-01-31T06:42:32;101693.44;;;4.79;88.48
818;BME280;391;51.052;6.954;2023-01-31T06:44:36;101691.38;;;4.87;88.72
818;BME280;391;51.052;6.954;2023-01-31T06:46:39;101705.00;;;4.98;88.47
818;BME280;391;51.052;6.954;2023-01-31T06:48:43;101682.41;;;4.95;87.79
818;BME280;391;51.052;6.954;2023-01-31T06:50:47;101710.84;;;4.95;87.92
818;BME280;391;51.052;6.954;2023-01-31T06:52:51;101717.03;;;5.10;87.43
818;BME280;391;51.052;6.954;2023-01-31T06:54:55;101717.13;;;5.12;86.69
818;BME280;391;51.052;6.954;2023-01-31T06:56:58;101721.13;;;5.20;86.95
818;BME280;391;51.052;6.954;2023-01-31T06:59:02;101709.97;;;5.21;86.83
818;BME280;391;51.052;6.954;2023-01-31T07:01:06;101621.00;;;4.65;86.44
818;BME280;391;51.052;6.954;2023-01-31T07:03:10;101717.84;;;5.36;86.01
818;BME280;391;51.052;6.954;2023-01-31T07:05:14;101717.03;;;5.37;86.48
818;BME280;391;51.052;6.954;2023-01-31T07:07:17;101722.91;;;5.47;86.13
818;BME280;391;51.052;6.954;2023-01-31T07:09:22;101710.56;;;5.43;86.03
818;BME280;391;51.052;6.954;2023-01-31T07:11:26;101716.66;;;5.44;85.33
818;BME280;391;51.052;6.954;2023-01-31T07:13:30;101717.63;;;5.46;85.69
818;BME280;391;51.052;6.954;2023-01-31T07:15:33;101728.88;;;5.46;85.19
818;BME280;391;51.052;6.954;2023-01-31T07:17:37;101722.13;;;5.35;85.14
818;BME280;391;51.052;6.954;2023-01-31T07:19:40;101692.78;;;5.21;85.24
818;BME280;391;51.052;6.954;2023-01-31T07:21:44;101719.03;;;5.41;85.15
818;BME280;391;51.052;6.954;2023-01-31T07:23:51;101721.75;;;5.42;84.57
818;BME280;391;51.052;6.954;2023-01-31T07:25:56;101740.72;;;5.43;85.27
818;BME280;391;51.052;6.954;2023-01-31T07:27:59;101730.56;;;5.46;85.57
818;BME280;391;51.052;6.954;2023-01-31T07:30:04;101743.28;;;5.56;85.55
818;BME280;391;51.052;6.954;2023-01-31T07:32:08;101732.66;;;5.64;85.13
818;BME280;391;51.052;6.954;2023-01-31T07:34:12;101723.19;;;5.65;84.16
818;BME280;391;51.052;6.954;2023-01-31T07:36:16;101719.81;;;5.53;84.06
818;BME280;391;51.052;6.954;2023-01-31T07:38:21;101729.78;;;5.60;84.03
818;BME280;391;51.052;6.954;2023-01-31T07:40:24;101713.06;;;5.68;83.77
818;BME280;391;51.052;6.954;2023-01-31T07:42:29;101711.16;;;5.52;83.87
818;BME280;391;51.052;6.954;2023-01-31T07:44:33;101711.09;;;5.51;83.96
818;BME280;391;51.052;6.954;2023-01-31T07:46:36;101707.78;;;5.53;84.21
818;BME280;391;51.052;6.954;2023-01-31T07:48:40;101706.41;;;5.45;84.11
818;BME280;391;51.052;6.954;2023-01-31T07:50:43;101702.81;;;5.43;84.13
818;BME280;391;51.052;6.954;2023-01-31T07:52:47;101705.91;;;5.51;83.43
818;BME280;391;51.052;6.954;2023-01-31T07:54:51;101704.81;;;5.60;83.23
818;BME280;391;51.052;6.954;2023-01-31T07:56:55;101709.84;;;5.72;82.66
818;BME280;391;51.052;6.954;2023-01-31T07:59:00;101704.28;;;5.66;82.22
818;BME280;391;51.052;6.954;2023-01-31T08:01:04;101703.81;;;5.58;82.68
818;BME280;391;51.052;6.954;2023-01-31T08:03:26;101703.91;;;5.73;81.97
818;BME280;391;51.052;6.954;2023-01-31T08:05:36;101704.50;;;5.69;82.32
818;BME280;391;51.052;6.954;2023-01-31T08:07:39;101706.88;;;5.66;81.13
818;BME280;391;51.052;6.954;2023-01-31T08:09:43;101703.19;;;5.62;81.70
818;BME280;391;51.052;6.954;2023-01-31T08:11:48;101705.97;;;5.78;81.36
818;BME280;391;51.052;6.954;2023-01-31T08:13:52;101630.34;;;5.42;81.00
818;BME280;391;51.052;6.954;2023-01-31T08:15:57;101714.53;;;5.91;80.46
818;BME280;391;51.052;6.954;2023-01-31T08:18:00;101708.03;;;5.84;80.52
818;BME280;391;51.052;6.954;2023-01-31T08:20:08;101713.66;;;5.90;80.02
818;BME280;391;51.052;6.954;2023-01-31T08:22:11;101708.38;;;5.89;79.98
818;BME280;391;51.052;6.954;2023-01-31T08:24:15;101690.75;;;5.96;79.92
818;BME280;391;51.052;6.954;2023-01-31T08:26:20;101689.25;;;6.00;79.97
818;BME280;391;51.052;6.954;2023-01-31T08:28:25;101644.22;;;5.57;79.73
818;BME280;391;51.052;6.954;2023-01-31T08:30:29;101675.13;;;5.95;79.68
818;BME280;391;51.052;6.954;2023-01-31T08:32:34;101690.03;;;5.99;79.15
818;BME280;391;51.052;6.954;2023-01-31T08:34:37;101682.78;;;5.80;79.79
818;BME280;391;51.052;6.954;2023-01-31T08:36:42;101690.06;;;5.72;80.31
818;BME280;391;51.052;6.954;2023-01-31T08:38:46;101690.16;;;5.74;80.13
818;BME280;391;51.052;6.954;2023-01-31T08:40:49;101685.09;;;5.62;80.25
818;BME280;391;51.052;6.954;2023-01-31T08:42:53;101687.84;;;5.78;80.36
818;BME280;391;51.052;6.954;2023-01-31T08:44:57;101663.78;;;5.79;80.25
818;BME280;391;51.052;6.954;2023-01-31T08:47:00;101671.16;;;5.73;79.94
818;BME280;391;51.052;6.954;2023-01-31T08:49:06;101670.28;;;5.86;79.46
818;BME280;391;51.052;6.954;2023-01-31T08:51:11;101681.22;;;5.69;80.15
818;BME280;391;51.052;6.954;2023-01-31T08:53:15;101660.47;;;5.82;80.49
818;BME280;391;51.052;6.954;2023-01-31T08:55:18;101552.59;;;5.25;79.54
818;BME280;391;51.052;6.954;2023-01-31T08:57:22;101686.88;;;5.76;80.42
818;BME280;391;51.052;6.954;2023-01-31T08:59:26;101677.50;;;5.78;80.52
818;BME280;391;51.052;6.954;2023-01-31T09:01:30;101663.47;;;5.88;79.71
818;BME280;391;51.052;6.954;2023-01-31T09:03:33;101673.09;;;6.04;80.03
818;BME280;391;51.052;6.954;2023-01-31T09:05:39;101675.03;;;5.93;80.01
818;BME280;391;51.052;6.954;2023-01-31T09:07:42;101662.56;;;5.74;80.36
818;BME280;391;51.052;6.954;2023-01-31T09:09:46;101657.19;;;5.84;80.54
818;BME280;391;51.052;6.954;2023-01-31T09:11:50;101658.69;;;5.81;80.78
818;BME280;391;51.052;6.954;2023-01-31T09:13:54;101661.78;;;5.75;82.06
818;BME280;391;51.052;6.954;2023-01-31T09:15:59;101656.91;;;5.93;81.74
818;BME280;391;51.052;6.954;2023-01-31T09:18:02;101653.69;;;5.84;82.46
818;BME280;391;51.052;6.954;2023-01-31T09:20:08;101652.41;;;5.91;82.85
818;BME280;391;51.052;6.954;2023-01-31T09:22:13;101642.50;;;5.70;84.16
818;BME280;391;51.052;6.954;2023-01-31T09:24:16;101646.56;;;5.80;84.41
818;BME280;391;51.052;6.954;2023-01-31T09:26:20;101598.22;;;5.66;84.69
818;BME280;391;51.052;6.954;2023-01-31T09:28:23;101607.59;;;5.64;85.06
818;BME280;391;51.052;6.954;2023-01-31T09:30:27;101627.91;;;5.58;86.46
818;BME280;391;51.052;6.954;2023-01-31T09:32:31;101636.88;;;5.50;87.05
818;BME280;391;51.052;6.954;2023-01-31T09:34:34;101627.09;;;5.59;87.27
818;BME280;391;51.052;6.954;2023-01-31T09:36:38;101641.31;;;5.65;87.33
818;BME280;391;51.052;6.954;2023-01-31T09:38:44;101638.63;;;5.90;86.04
818;BME280;391;51.052;6.954;2023-01-31T09:40:48;101638.50;;;5.89;86.11
818;BME280;391;51.052;6.954;2023-01-31T09:42:53;101626.84;;;5.95;85.94
818;BME280;391;51.052;6.954;2023-01-31T09:45:01;101630.59;;;6.00;86.18
818;BME280;391;51.052;6.954;2023-01-31T09:47:09;101622.75;;;5.99;86.89
818;BME280;391;51.052;6.954;2023-01-31T09:49:20;101523.13;;;5.37;86.81
818;BME280;391;51.052;6.954;2023-01-31T09:51:25;101634.06;;;6.01;87.05
818;BME280;391;51.052;6.954;2023-01-31T09:53:30;101618.22;;;6.09;87.03
818;BME280;391;51.052;6.954;2023-01-31T09:55:43;101616.63;;;6.11;86.45
818;BME280;391;51.052;6.954;2023-01-31T09:57:54;101615.25;;;6.03;86.86
818;BME280;391;51.052;6.954;2023-01-31T10:00:07;101623.50;;;6.25;86.44
818;BME280;391;51.052;6.954;2023-01-31T10:02:38;101620.66;;;6.21;86.62
818;BME280;391;51.052;6.954;2023-01-31T10:04:56;101622.59;;;6.10;86.28
818;BME280;391;51.052;6.954;2023-01-31T10:07:11;101614.50;;;5.91;87.01
818;BME280;391;51.052;6.954;2023-01-31T10:09:19;101616.91;;;5.88;87.17
818;BME280;391;51.052;6.954;2023-01-31T10:11:31;101603.72;;;5.98;87.34
818;BME280;391;51.052;6.954;2023-01-31T10:13:44;101600.47;;;6.15;86.61
818;BME280;391;51.052;6.954;2023-01-31T10:15:52;101522.44;;;5.81;85.81
818;BME280;391;51.052;6.954;2023-01-31T10:18:00;101600.91;;;6.23;85.84
818;BME280;391;51.052;6.954;2023-01-31T10:20:09;101602.69;;;6.09;86.46
818;BME280;391;51.052;6.954;2023-01-31T10:22:24;101600.56;;;6.17;86.47
818;BME280;391;51.052;6.954;2023-01-31T10:24:31;101588.03;;;6.10;86.53
818;BME280;391;51.052;6.954;2023-01-31T10:26:40;101582.84;;;6.10;86.85
818;BME280;391;51.052;6.954;2023-01-31T10:28:48;101582.09;;;6.40;85.96
818;BME280;391;51.052;6.954;2023-01-31T10:30:57;101577.78;;;6.26;86.32
818;BME280;391;51.052;6.954;2023-01-31T10:33:18;101574.69;;;6.46;86.24
818;BME280;391;51.052;6.954;2023-01-31T10:35:27;101564.88;;;6.41;85.95
818;BME280;391;51.052;6.954;2023-01-31T10:37:38;101571.81;;;6.42;86.23
818;BME280;391;51.052;6.954;2023-01-31T10:39:49;101563.72;;;6.50;85.67
818;BME280;391;51.052;6.954;2023-01-31T10:42:05;101572.81;;;6.44;86.30
818;BME280;391;51.052;6.954;2023-01-31T10:44:19;101552.38;;;6.33;86.68
818;BME280;391;51.052;6.954;2023-01-31T10:46:24;101529.69;;;6.15;86.21
818;BME280;391;51.052;6.954;2023-01-31T10:48:28;101538.06;;;6.40;86.45
818;BME280;391;51.052;6.954;2023-01-31T10:50:39;101543.41;;;6.58;86.43
818;BME280;391;51.052;6.954;2023-01-31T10:52:56;101541.31;;;6.51;85.75
818;BME280;391;51.052;6.954;2023-01-31T10:55:14;101515.13;;;6.31;85.82
818;BME280;391;51.052;6.954;2023-01-31T10:57:26;101531.19;;;6.41;85.82
818;BME280;391;51.052;6.954;2023-01-31T10:59:32;101524.56;;;6.46;85.96
818;BME280;391;51.052;6.954;2023-01-31T11:01:37;101529.22;;;6.66;85.44
818;BME280;391;51.052;6.954;2023-01-31T11:03:44;101523.09;;;6.80;84.43
818;BME280;391;51.052;6.954;2023-01-31T11:05:52;101526.34;;;6.76;84.19
818;BME280;391;51.052;6.954;2023-01-31T11:07:56;101524.59;;;6.91;84.00
818;BME280;391;51.052;6.954;2023-01-31T11:10:19;101509.78;;;6.88;83.74
818;BME280;391;51.052;6.954;2023-01-31T11:12:41;101510.97;;;6.79;83.65
818;BME280;391;51.052;6.954;2023-01-31T11:15:05;101501.94;;;6.72;84.19
818;BME280;391;51.052;6.954;2023-01-31T11:17:16;101499.78;;;6.80;84.43
818;BME280;391;51.052;6.954;2023-01-31T11:19:28;101495.63;;;6.98;83.60
818;BME280;391;51.052;6.954;2023-01-31T11:21:34;101485.44;;;6.86;83.80
818;BME280;391;51.052;6.954;2023-01-31T11:23:42;101487.69;;;6.95;83.53
818;BME280;391;51.052;6.954;2023-01-31T11:25:49;101495.06;;;7.04;83.43
818;BME280;391;51.052;6.954;2023-01-31T11:27:56;101495.31;;;6.77;83.56
818;BME280;391;51.052;6.954;2023-01-31T11:30:01;101485.34;;;6.69;84.04
818;BME280;391;51.052;6.954;2023-01-31T11:32:14;101485.16;;;6.66;84.37
818;BME280;391;51.052;6.954;2023-01-31T11:34:21;101505.50;;;6.74;84.45
818;BME280;391;51.052;6.954;2023-01-31T11:36:30;101486.00;;;6.81;84.27
818;BME280;391;51.052;6.954;2023-01-31T11:38:34;101490.81;;;6.89;83.88
818;BME280;391;51.052;6.954;2023-01-31T11:40:38;101474.25;;;6.71;84.48
818;BME280;391;51.052;6.954;2023-01-31T11:42:50;101487.13;;;6.70;84.66
818;BME280;391;51.052;6.954;2023-01-31T11:44:58;101470.53;;;6.66;84.74
818;BME280;391;51.052;6.954;2023-01-31T11:47:03;101480.59;;;6.76;85.26
818;BME280;391;51.052;6.954;2023-01-31T11:49:11;101466.56;;;6.73;85.42